Terminal Aerodrome Forecast
Issued by NWS

Home | Current Version | Previous Version | Text Only | Print | Product List | Glossary On
Versions: 1 2 3 4 5 6 7 8 9 10 11 12 13 14 15 16 17 18 19 20
210
FTUS41 KALY 020536
TAFPSF
TAF
KPSF 020536Z 0206/0306 08003KT 2SM -DZ BR OVC004
      TEMPO 0206/0210 4SM -DZ BR OVC007
     FM021400 12004KT 2SM -RA BR OVC003
     FM022200 20004KT P6SM -DZ OVC015
     FM030400 28003KT 3SM -DZ BR OVC002=

USA.gov is the U.S. government's official web portal to all federal, state and local government web resources and services.